sensor_id;sensor_type;location;lat;lon;timestamp;temperature;humidity
7518;DHT22;3800;48.922;9.444;2023-08-12T00:01:48;18.10;99.90
7518;DHT22;3800;48.922;9.444;2023-08-12T00:04:16;18.00;99.90
7518;DHT22;3800;48.922;9.444;2023-08-12T00:06:44;18.00;99.90
7518;DHT22;3800;48.922;9.444;2023-08-12T00:09:12;18.10;99.90
7518;DHT22;3800;48.922;9.444;2023-08-12T00:11:39;18.10;99.90
7518;DHT22;3800;48.922;9.444;2023-08-12T00:14:09;18.00;99.90
7518;DHT22;3800;48.922;9.444;2023-08-12T00:16:36;18.00;99.90
7518;DHT22;3800;48.922;9.444;2023-08-12T00:19:04;18.10;99.90
7518;DHT22;3800;48.922;9.444;2023-08-12T00:21:34;18.10;99.90
7518;DHT22;3800;48.922;9.444;2023-08-12T00:24:03;18.10;99.90
7518;DHT22;3800;48.922;9.444;2023-08-12T00:26:30;18.10;99.90
7518;DHT22;3800;48.922;9.444;2023-08-12T00:28:58;18.10;99.90
7518;DHT22;3800;48.922;9.444;2023-08-12T00:31:26;18.10;99.90
7518;DHT22;3800;48.922;9.444;2023-08-12T00:33:53;18.10;99.90
7518;DHT22;3800;48.922;9.444;2023-08-12T00:36:21;18.20;99.90
7518;DHT22;3800;48.922;9.444;2023-08-12T00:38:49;18.10;99.90
7518;DHT22;3800;48.922;9.444;2023-08-12T00:41:16;18.10;99.90
7518;DHT22;3800;48.922;9.444;2023-08-12T00:43:44;18.10;99.90
7518;DHT22;3800;48.922;9.444;2023-08-12T00:46:12;18.00;99.90
7518;DHT22;3800;48.922;9.444;2023-08-12T00:48:40;18.00;99.90
7518;DHT22;3800;48.922;9.444;2023-08-12T00:51:07;17.90;99.90
7518;DHT22;3800;48.922;9.444;2023-08-12T00:53:35;17.90;99.90
7518;DHT22;3800;48.922;9.444;2023-08-12T00:56:03;17.90;99.90
7518;DHT22;3800;48.922;9.444;2023-08-12T00:58:30;17.90;99.90
7518;DHT22;3800;48.922;9.444;2023-08-12T01:00:58;18.00;99.90
7518;DHT22;3800;48.922;9.444;2023-08-12T01:03:26;17.90;99.90
7518;DHT22;3800;48.922;9.444;2023-08-12T01:05:54;17.90;99.90
7518;DHT22;3800;48.922;9.444;2023-08-12T01:08:23;17.90;99.90
7518;DHT22;3800;48.922;9.444;2023-08-12T01:10:52;17.90;99.90
7518;DHT22;3800;48.922;9.444;2023-08-12T01:16:04;17.80;99.90
7518;DHT22;3800;48.922;9.444;2023-08-12T01:18:32;17.80;99.90
7518;DHT22;3800;48.922;9.444;2023-08-12T01:21:00;17.80;99.90
7518;DHT22;3800;48.922;9.444;2023-08-12T01:23:27;17.80;99.90
7518;DHT22;3800;48.922;9.444;2023-08-12T01:25:56;17.80;99.90
7518;DHT22;3800;48.922;9.444;2023-08-12T01:28:24;17.80;99.90
7518;DHT22;3800;48.922;9.444;2023-08-12T01:31:06;17.80;99.90
7518;DHT22;3800;48.922;9.444;2023-08-12T01:33:38;17.80;99.90
7518;DHT22;3800;48.922;9.444;2023-08-12T01:36:07;17.80;99.90
7518;DHT22;3800;48.922;9.444;2023-08-12T01:38:31;17.80;99.90
7518;DHT22;3800;48.922;9.444;2023-08-12T01:40:59;17.80;99.90
7518;DHT22;3800;48.922;9.444;2023-08-12T01:43:27;17.80;99.90
7518;DHT22;3800;48.922;9.444;2023-08-12T01:45:54;17.80;99.90
7518;DHT22;3800;48.922;9.444;2023-08-12T01:48:23;17.70;99.90
7518;DHT22;3800;48.922;9.444;2023-08-12T01:50:51;17.70;99.90
7518;DHT22;3800;48.922;9.444;2023-08-12T01:53:19;17.70;99.90
7518;DHT22;3800;48.922;9.444;2023-08-12T01:55:48;17.60;99.90
7518;DHT22;3800;48.922;9.444;2023-08-12T01:58:16;17.60;99.90
7518;DHT22;3800;48.922;9.444;2023-08-12T02:00:44;17.60;99.90
7518;DHT22;3800;48.922;9.444;2023-08-12T02:03:12;17.60;99.90
7518;DHT22;3800;48.922;9.444;2023-08-12T02:05:40;17.60;99.90
7518;DHT22;3800;48.922;9.444;2023-08-12T02:08:08;17.70;99.90
7518;DHT22;3800;48.922;9.444;2023-08-12T02:10:35;17.70;99.90
7518;DHT22;3800;48.922;9.444;2023-08-12T02:13:03;17.70;99.90
7518;DHT22;3800;48.922;9.444;2023-08-12T02:15:31;17.70;99.90
7518;DHT22;3800;48.922;9.444;2023-08-12T02:17:58;17.70;99.90
7518;DHT22;3800;48.922;9.444;2023-08-12T02:20:27;17.60;99.90
7518;DHT22;3800;48.922;9.444;2023-08-12T02:22:54;17.60;99.90
7518;DHT22;3800;48.922;9.444;2023-08-12T02:25:22;17.60;99.90
7518;DHT22;3800;48.922;9.444;2023-08-12T02:27:51;17.60;99.90
7518;DHT22;3800;48.922;9.444;2023-08-12T02:30:19;17.60;99.90
7518;DHT22;3800;48.922;9.444;2023-08-12T02:32:47;17.60;99.90
7518;DHT22;3800;48.922;9.444;2023-08-12T02:35:14;17.60;99.90
7518;DHT22;3800;48.922;9.444;2023-08-12T02:37:42;17.50;99.90
7518;DHT22;3800;48.922;9.444;2023-08-12T02:40:10;17.40;99.90
7518;DHT22;3800;48.922;9.444;2023-08-12T02:42:38;17.40;99.90
7518;DHT22;3800;48.922;9.444;2023-08-12T02:45:06;17.40;99.90
7518;DHT22;3800;48.922;9.444;2023-08-12T02:47:34;17.40;99.90
7518;DHT22;3800;48.922;9.444;2023-08-12T02:50:03;17.40;99.90
7518;DHT22;3800;48.922;9.444;2023-08-12T02:52:31;17.40;99.90
7518;DHT22;3800;48.922;9.444;2023-08-12T02:54:59;17.40;99.90
7518;DHT22;3800;48.922;9.444;2023-08-12T02:57:27;17.40;99.90
7518;DHT22;3800;48.922;9.444;2023-08-12T02:59:55;17.50;99.90
7518;DHT22;3800;48.922;9.444;2023-08-12T03:02:23;17.50;99.90
7518;DHT22;3800;48.922;9.444;2023-08-12T03:04:51;17.50;99.90
7518;DHT22;3800;48.922;9.444;2023-08-12T03:07:18;17.50;99.90
7518;DHT22;3800;48.922;9.444;2023-08-12T03:09:46;17.50;99.90
7518;DHT22;3800;48.922;9.444;2023-08-12T03:12:13;17.50;99.90
7518;DHT22;3800;48.922;9.444;2023-08-12T03:14:41;17.60;99.90
7518;DHT22;3800;48.922;9.444;2023-08-12T03:17:09;17.60;99.90
7518;DHT22;3800;48.922;9.444;2023-08-12T03:19:36;17.60;99.90
7518;DHT22;3800;48.922;9.444;2023-08-12T03:22:04;17.70;99.90
7518;DHT22;3800;48.922;9.444;2023-08-12T03:24:32;17.70;99.90
7518;DHT22;3800;48.922;9.444;2023-08-12T03:26:59;17.70;99.90
7518;DHT22;3800;48.922;9.444;2023-08-12T03:29:27;17.70;99.90
7518;DHT22;3800;48.922;9.444;2023-08-12T03:31:56;17.80;99.90
7518;DHT22;3800;48.922;9.444;2023-08-12T03:34:24;17.80;99.90
7518;DHT22;3800;48.922;9.444;2023-08-12T03:36:52;17.80;99.90
7518;DHT22;3800;48.922;9.444;2023-08-12T03:39:20;17.80;99.90
7518;DHT22;3800;48.922;9.444;2023-08-12T03:41:48;17.80;99.90
7518;DHT22;3800;48.922;9.444;2023-08-12T03:44:19;17.90;99.90
7518;DHT22;3800;48.922;9.444;2023-08-12T03:46:47;17.90;99.90
7518;DHT22;3800;48.922;9.444;2023-08-12T03:49:16;17.90;99.90
7518;DHT22;3800;48.922;9.444;2023-08-12T03:51:43;17.90;99.90
7518;DHT22;3800;48.922;9.444;2023-08-12T03:54:11;17.90;99.90
7518;DHT22;3800;48.922;9.444;2023-08-12T03:56:39;17.90;99.90
7518;DHT22;3800;48.922;9.444;2023-08-12T03:59:07;17.90;99.90
7518;DHT22;3800;48.922;9.444;2023-08-12T04:01:36;17.90;99.90
7518;DHT22;3800;48.922;9.444;2023-08-12T04:04:03;17.90;99.90
7518;DHT22;3800;48.922;9.444;2023-08-12T04:06:31;17.90;99.90
7518;DHT22;3800;48.922;9.444;2023-08-12T04:08:59;17.90;99.90
7518;DHT22;3800;48.922;9.444;2023-08-12T04:11:26;17.90;99.90
7518;DHT22;3800;48.922;9.444;2023-08-12T04:13:55;17.90;99.90
7518;DHT22;3800;48.922;9.444;2023-08-12T04:16:23;17.90;99.90
7518;DHT22;3800;48.922;9.444;2023-08-12T04:18:51;17.90;99.90
7518;DHT22;3800;48.922;9.444;2023-08-12T04:21:19;17.90;99.90
7518;DHT22;3800;48.922;9.444;2023-08-12T04:23:47;18.00;99.90
7518;DHT22;3800;48.922;9.444;2023-08-12T04:26:15;18.00;99.90
7518;DHT22;3800;48.922;9.444;2023-08-12T04:28:43;18.00;99.90
7518;DHT22;3800;48.922;9.444;2023-08-12T04:31:11;18.00;99.90
7518;DHT22;3800;48.922;9.444;2023-08-12T04:33:39;18.00;99.90
7518;DHT22;3800;48.922;9.444;2023-08-12T04:36:07;18.10;99.90
7518;DHT22;3800;48.922;9.444;2023-08-12T04:38:35;18.10;99.90
7518;DHT22;3800;48.922;9.444;2023-08-12T04:41:03;18.10;99.90
7518;DHT22;3800;48.922;9.444;2023-08-12T04:43:32;18.10;99.90
7518;DHT22;3800;48.922;9.444;2023-08-12T04:46:00;18.10;99.90
7518;DHT22;3800;48.922;9.444;2023-08-12T04:48:28;18.20;99.90
7518;DHT22;3800;48.922;9.444;2023-08-12T04:50:55;18.20;99.90
7518;DHT22;3800;48.922;9.444;2023-08-12T04:53:24;18.20;99.90
7518;DHT22;3800;48.922;9.444;2023-08-12T04:55:53;18.20;99.90
7518;DHT22;3800;48.922;9.444;2023-08-12T04:58:20;18.20;99.90
7518;DHT22;3800;48.922;9.444;2023-08-12T05:00:47;18.20;99.90
7518;DHT22;3800;48.922;9.444;2023-08-12T05:03:15;18.30;99.90
7518;DHT22;3800;48.922;9.444;2023-08-12T05:05:43;18.30;99.90
7518;DHT22;3800;48.922;9.444;2023-08-12T05:08:10;18.30;99.90
7518;DHT22;3800;48.922;9.444;2023-08-12T05:10:38;18.40;99.90
7518;DHT22;3800;48.922;9.444;2023-08-12T05:13:05;18.40;99.90
7518;DHT22;3800;48.922;9.444;2023-08-12T05:15:33;18.50;99.90
7518;DHT22;3800;48.922;9.444;2023-08-12T05:18:01;18.50;99.90
7518;DHT22;3800;48.922;9.444;2023-08-12T05:20:28;18.60;99.90
7518;DHT22;3800;48.922;9.444;2023-08-12T05:22:57;18.60;99.90
7518;DHT22;3800;48.922;9.444;2023-08-12T05:25:24;18.60;99.90
7518;DHT22;3800;48.922;9.444;2023-08-12T05:27:53;18.60;99.90
7518;DHT22;3800;48.922;9.444;2023-08-12T05:30:21;18.60;99.90
7518;DHT22;3800;48.922;9.444;2023-08-12T05:32:49;18.60;99.90
7518;DHT22;3800;48.922;9.444;2023-08-12T05:35:16;18.70;99.90
7518;DHT22;3800;48.922;9.444;2023-08-12T05:37:44;18.70;99.90
7518;DHT22;3800;48.922;9.444;2023-08-12T05:40:12;18.80;99.90
7518;DHT22;3800;48.922;9.444;2023-08-12T05:42:39;18.80;99.90
7518;DHT22;3800;48.922;9.444;2023-08-12T05:45:07;18.90;99.90
7518;DHT22;3800;48.922;9.444;2023-08-12T05:47:35;18.90;99.90
7518;DHT22;3800;48.922;9.444;2023-08-12T05:50:03;18.90;99.90
7518;DHT22;3800;48.922;9.444;2023-08-12T05:52:31;18.90;99.90
7518;DHT22;3800;48.922;9.444;2023-08-12T05:54:59;18.90;99.90
7518;DHT22;3800;48.922;9.444;2023-08-12T05:57:27;18.90;99.90
7518;DHT22;3800;48.922;9.444;2023-08-12T05:59:54;18.90;99.90
7518;DHT22;3800;48.922;9.444;2023-08-12T06:02:22;18.90;99.90
7518;DHT22;3800;48.922;9.444;2023-08-12T06:04:50;19.00;99.90
7518;DHT22;3800;48.922;9.444;2023-08-12T06:07:18;19.00;99.90
7518;DHT22;3800;48.922;9.444;2023-08-12T06:09:46;19.00;99.90
7518;DHT22;3800;48.922;9.444;2023-08-12T06:12:13;19.10;99.90
7518;DHT22;3800;48.922;9.444;2023-08-12T06:14:41;19.20;99.90
7518;DHT22;3800;48.922;9.444;2023-08-12T06:17:10;19.30;99.90
7518;DHT22;3800;48.922;9.444;2023-08-12T06:19:40;19.40;99.90
7518;DHT22;3800;48.922;9.444;2023-08-12T06:22:07;19.40;99.90
7518;DHT22;3800;48.922;9.444;2023-08-12T06:24:35;19.40;99.90
7518;DHT22;3800;48.922;9.444;2023-08-12T06:27:03;19.40;99.90
7518;DHT22;3800;48.922;9.444;2023-08-12T06:29:31;19.40;99.90
7518;DHT22;3800;48.922;9.444;2023-08-12T06:31:59;19.40;99.90
7518;DHT22;3800;48.922;9.444;2023-08-12T06:34:26;19.50;99.90
7518;DHT22;3800;48.922;9.444;2023-08-12T06:36:54;19.60;99.90
7518;DHT22;3800;48.922;9.444;2023-08-12T06:39:22;19.70;99.90
7518;DHT22;3800;48.922;9.444;2023-08-12T06:41:50;19.70;99.90
7518;DHT22;3800;48.922;9.444;2023-08-12T06:44:17;19.80;99.90
7518;DHT22;3800;48.922;9.444;2023-08-12T06:46:46;19.80;99.90
7518;DHT22;3800;48.922;9.444;2023-08-12T06:49:14;19.80;99.90
7518;DHT22;3800;48.922;9.444;2023-08-12T06:51:42;19.80;99.90
7518;DHT22;3800;48.922;9.444;2023-08-12T06:54:10;19.80;99.90
7518;DHT22;3800;48.922;9.444;2023-08-12T06:56:38;19.80;99.90
7518;DHT22;3800;48.922;9.444;2023-08-12T06:59:07;20.00;99.90
7518;DHT22;3800;48.922;9.444;2023-08-12T07:01:35;20.00;99.90
7518;DHT22;3800;48.922;9.444;2023-08-12T07:04:03;20.10;99.90
7518;DHT22;3800;48.922;9.444;2023-08-12T07:06:31;20.20;99.90
7518;DHT22;3800;48.922;9.444;2023-08-12T07:08:58;20.30;99.90
7518;DHT22;3800;48.922;9.444;2023-08-12T07:11:27;20.60;99.90
7518;DHT22;3800;48.922;9.444;2023-08-12T07:13:54;20.60;99.90
7518;DHT22;3800;48.922;9.444;2023-08-12T07:16:23;20.70;99.90
7518;DHT22;3800;48.922;9.444;2023-08-12T07:18:51;20.80;99.90
7518;DHT22;3800;48.922;9.444;2023-08-12T07:21:19;20.90;99.90
7518;DHT22;3800;48.922;9.444;2023-08-12T07:23:47;21.00;99.90
7518;DHT22;3800;48.922;9.444;2023-08-12T07:26:15;21.00;99.90
7518;DHT22;3800;48.922;9.444;2023-08-12T07:28:42;21.10;99.90
7518;DHT22;3800;48.922;9.444;2023-08-12T07:31:10;21.10;99.90
7518;DHT22;3800;48.922;9.444;2023-08-12T07:33:38;21.20;99.90
7518;DHT22;3800;48.922;9.444;2023-08-12T07:36:05;21.30;99.90
7518;DHT22;3800;48.922;9.444;2023-08-12T07:38:33;21.40;99.90
7518;DHT22;3800;48.922;9.444;2023-08-12T07:41:01;21.60;99.90
7518;DHT22;3800;48.922;9.444;2023-08-12T07:43:29;21.70;99.90
7518;DHT22;3800;48.922;9.444;2023-08-12T07:45:57;21.90;99.90
7518;DHT22;3800;48.922;9.444;2023-08-12T07:48:24;22.10;99.90
7518;DHT22;3800;48.922;9.444;2023-08-12T07:50:56;22.20;99.90
7518;DHT22;3800;48.922;9.444;2023-08-12T07:53:25;22.60;99.90
7518;DHT22;3800;48.922;9.444;2023-08-12T07:55:52;22.50;99.90
7518;DHT22;3800;48.922;9.444;2023-08-12T07:58:20;22.70;99.90
7518;DHT22;3800;48.922;9.444;2023-08-12T08:00:48;22.90;99.90
7518;DHT22;3800;48.922;9.444;2023-08-12T08:03:16;23.00;99.90
7518;DHT22;3800;48.922;9.444;2023-08-12T08:05:44;23.10;99.90
7518;DHT22;3800;48.922;9.444;2023-08-12T08:08:13;23.30;99.90
7518;DHT22;3800;48.922;9.444;2023-08-12T08:10:41;23.50;99.90
7518;DHT22;3800;48.922;9.444;2023-08-12T08:13:09;23.80;99.90
7518;DHT22;3800;48.922;9.444;2023-08-12T08:15:36;24.00;99.90
7518;DHT22;3800;48.922;9.444;2023-08-12T08:18:05;24.10;99.90
7518;DHT22;3800;48.922;9.444;2023-08-12T08:20:33;24.30;99.90
7518;DHT22;3800;48.922;9.444;2023-08-12T08:23:00;24.60;99.90
7518;DHT22;3800;48.922;9.444;2023-08-12T08:25:28;24.90;99.90
7518;DHT22;3800;48.922;9.444;2023-08-12T08:27:59;25.10;99.90
7518;DHT22;3800;48.922;9.444;2023-08-12T08:30:27;25.30;99.90
7518;DHT22;3800;48.922;9.444;2023-08-12T08:32:56;25.50;99.90
7518;DHT22;3800;48.922;9.444;2023-08-12T08:35:24;25.50;99.90
7518;DHT22;3800;48.922;9.444;2023-08-12T08:37:53;25.70;99.90
7518;DHT22;3800;48.922;9.444;2023-08-12T08:40:20;26.00;99.90
7518;DHT22;3800;48.922;9.444;2023-08-12T08:42:51;26.30;99.90
7518;DHT22;3800;48.922;9.444;2023-08-12T08:45:17;26.20;99.90
7518;DHT22;3800;48.922;9.444;2023-08-12T08:47:45;26.50;99.90
7518;DHT22;3800;48.922;9.444;2023-08-12T08:50:12;26.80;99.90
7518;DHT22;3800;48.922;9.444;2023-08-12T08:52:41;26.90;99.90
7518;DHT22;3800;48.922;9.444;2023-08-12T08:55:09;26.90;99.90
7518;DHT22;3800;48.922;9.444;2023-08-12T08:57:37;26.90;99.90
7518;DHT22;3800;48.922;9.444;2023-08-12T09:00:07;27.00;99.90
7518;DHT22;3800;48.922;9.444;2023-08-12T09:02:35;27.00;99.90
7518;DHT22;3800;48.922;9.444;2023-08-12T09:05:03;27.10;99.90
7518;DHT22;3800;48.922;9.444;2023-08-12T09:07:31;27.20;99.90
7518;DHT22;3800;48.922;9.444;2023-08-12T09:09:58;27.10;99.90
7518;DHT22;3800;48.922;9.444;2023-08-12T09:12:26;27.10;99.90
7518;DHT22;3800;48.922;9.444;2023-08-12T09:14:53;27.00;99.90
7518;DHT22;3800;48.922;9.444;2023-08-12T09:17:21;27.30;99.90
7518;DHT22;3800;48.922;9.444;2023-08-12T09:19:49;27.40;99.90
7518;DHT22;3800;48.922;9.444;2023-08-12T09:22:17;27.70;99.90
7518;DHT22;3800;48.922;9.444;2023-08-12T09:24:44;27.60;99.90
7518;DHT22;3800;48.922;9.444;2023-08-12T09:27:12;27.60;99.90
7518;DHT22;3800;48.922;9.444;2023-08-12T09:29:39;28.00;99.90
7518;DHT22;3800;48.922;9.444;2023-08-12T09:32:11;28.10;99.90
7518;DHT22;3800;48.922;9.444;2023-08-12T09:34:46;28.10;99.90
7518;DHT22;3800;48.922;9.444;2023-08-12T09:37:14;28.30;99.90
7518;DHT22;3800;48.922;9.444;2023-08-12T09:39:41;28.60;99.90
7518;DHT22;3800;48.922;9.444;2023-08-12T09:42:10;28.80;99.90
7518;DHT22;3800;48.922;9.444;2023-08-12T09:44:38;28.90;99.90
7518;DHT22;3800;48.922;9.444;2023-08-12T09:47:06;28.90;99.90
7518;DHT22;3800;48.922;9.444;2023-08-12T09:49:34;28.90;99.90
7518;DHT22;3800;48.922;9.444;2023-08-12T09:52:02;28.60;99.90
7518;DHT22;3800;48.922;9.444;2023-08-12T09:54:30;28.60;99.90
7518;DHT22;3800;48.922;9.444;2023-08-12T09:56:59;28.90;99.90
7518;DHT22;3800;48.922;9.444;2023-08-12T09:59:27;28.90;99.90
7518;DHT22;3800;48.922;9.444;2023-08-12T10:01:52;29.10;99.90
7518;DHT22;3800;48.922;9.444;2023-08-12T10:04:21;29.30;99.90
7518;DHT22;3800;48.922;9.444;2023-08-12T10:06:48;29.20;99.90
7518;DHT22;3800;48.922;9.444;2023-08-12T10:09:16;28.90;99.90
7518;DHT22;3800;48.922;9.444;2023-08-12T10:11:43;28.90;99.90
7518;DHT22;3800;48.922;9.444;2023-08-12T10:14:12;29.20;99.90
7518;DHT22;3800;48.922;9.444;2023-08-12T10:16:41;29.10;99.90
7518;DHT22;3800;48.922;9.444;2023-08-12T10:19:10;29.10;99.90
7518;DHT22;3800;48.922;9.444;2023-08-12T10:21:36;29.20;99.90
7518;DHT22;3800;48.922;9.444;2023-08-12T10:24:05;29.30;99.90
7518;DHT22;3800;48.922;9.444;2023-08-12T10:26:32;29.30;99.90
7518;DHT22;3800;48.922;9.444;2023-08-12T10:29:01;29.30;99.90
7518;DHT22;3800;48.922;9.444;2023-08-12T10:31:28;29.20;99.90
7518;DHT22;3800;48.922;9.444;2023-08-12T10:33:57;29.00;99.90
7518;DHT22;3800;48.922;9.444;2023-08-12T10:36:25;28.80;99.90
7518;DHT22;3800;48.922;9.444;2023-08-12T10:38:53;28.70;99.90
7518;DHT22;3800;48.922;9.444;2023-08-12T10:41:22;28.60;99.90
7518;DHT22;3800;48.922;9.444;2023-08-12T10:43:54;28.70;99.90
7518;DHT22;3800;48.922;9.444;2023-08-12T10:46:22;28.80;99.90
7518;DHT22;3800;48.922;9.444;2023-08-12T10:48:56;29.00;99.90
7518;DHT22;3800;48.922;9.444;2023-08-12T10:54:14;29.00;99.90
7518;DHT22;3800;48.922;9.444;2023-08-12T11:02:06;28.90;99.90
7518;DHT22;3800;48.922;9.444;2023-08-12T11:04:36;28.80;99.90
7518;DHT22;3800;48.922;9.444;2023-08-12T11:07:00;28.80;99.90
7518;DHT22;3800;48.922;9.444;2023-08-12T11:09:28;28.80;99.90
7518;DHT22;3800;48.922;9.444;2023-08-12T11:11:58;28.80;99.90
7518;DHT22;3800;48.922;9.444;2023-08-12T11:14:25;28.80;99.90
7518;DHT22;3800;48.922;9.444;2023-08-12T11:16:53;28.80;99.90
7518;DHT22;3800;48.922;9.444;2023-08-12T11:19:20;28.80;99.90
7518;DHT22;3800;48.922;9.444;2023-08-12T11:21:48;28.80;99.90
7518;DHT22;3800;48.922;9.444;2023-08-12T11:24:15;28.90;99.90
7518;DHT22;3800;48.922;9.444;2023-08-12T11:26:44;28.90;99.90
7518;DHT22;3800;48.922;9.444;2023-08-12T11:29:11;28.90;99.90
7518;DHT22;3800;48.922;9.444;2023-08-12T11:31:39;29.00;99.90
7518;DHT22;3800;48.922;9.444;2023-08-12T11:34:07;29.20;99.90
7518;DHT22;3800;48.922;9.444;2023-08-12T11:36:35;29.30;99.90
7518;DHT22;3800;48.922;9.444;2023-08-12T11:39:02;29.30;99.90
7518;DHT22;3800;48.922;9.444;2023-08-12T11:41:30;29.40;99.90
7518;DHT22;3800;48.922;9.444;2023-08-12T11:43:58;29.50;99.90
7518;DHT22;3800;48.922;9.444;2023-08-12T11:46:27;29.70;99.90
7518;DHT22;3800;48.922;9.444;2023-08-12T11:48:55;29.70;99.90
7518;DHT22;3800;48.922;9.444;2023-08-12T11:51:23;29.80;99.90
7518;DHT22;3800;48.922;9.444;2023-08-12T11:53:51;29.80;99.90
7518;DHT22;3800;48.922;9.444;2023-08-12T11:56:19;29.80;99.90
7518;DHT22;3800;48.922;9.444;2023-08-12T11:58:48;29.80;99.90
7518;DHT22;3800;48.922;9.444;2023-08-12T12:01:16;29.80;99.90
7518;DHT22;3800;48.922;9.444;2023-08-12T12:03:44;29.70;99.90
7518;DHT22;3800;48.922;9.444;2023-08-12T12:06:12;29.60;99.90
7518;DHT22;3800;48.922;9.444;2023-08-12T12:08:39;29.60;99.90
7518;DHT22;3800;48.922;9.444;2023-08-12T12:11:07;29.60;99.90
7518;DHT22;3800;48.922;9.444;2023-08-12T12:13:35;29.40;99.90
7518;DHT22;3800;48.922;9.444;2023-08-12T12:16:03;29.20;99.90
7518;DHT22;3800;48.922;9.444;2023-08-12T12:18:31;29.00;99.90
7518;DHT22;3800;48.922;9.444;2023-08-12T12:21:00;28.80;99.90
7518;DHT22;3800;48.922;9.444;2023-08-12T12:23:28;28.40;99.90
7518;DHT22;3800;48.922;9.444;2023-08-12T12:25:59;26.90;99.90
7518;DHT22;3800;48.922;9.444;2023-08-12T12:28:26;24.80;99.90
7518;DHT22;3800;48.922;9.444;2023-08-12T12:30:54;23.80;99.90
7518;DHT22;3800;48.922;9.444;2023-08-12T12:33:21;22.70;99.90
7518;DHT22;3800;48.922;9.444;2023-08-12T12:35:50;21.60;99.90
7518;DHT22;3800;48.922;9.444;2023-08-12T12:38:17;21.50;99.90
7518;DHT22;3800;48.922;9.444;2023-08-12T12:40:46;21.20;99.90
7518;DHT22;3800;48.922;9.444;2023-08-12T12:43:14;21.10;99.90
7518;DHT22;3800;48.922;9.444;2023-08-12T12:45:42;21.10;99.90
7518;DHT22;3800;48.922;9.444;2023-08-12T12:48:10;21.10;99.90
7518;DHT22;3800;48.922;9.444;2023-08-12T12:50:37;20.90;99.90
7518;DHT22;3800;48.922;9.444;2023-08-12T12:53:05;20.80;99.90
7518;DHT22;3800;48.922;9.444;2023-08-12T12:55:34;20.70;99.90
7518;DHT22;3800;48.922;9.444;2023-08-12T12:58:03;20.70;99.90
7518;DHT22;3800;48.922;9.444;2023-08-12T13:00:33;20.70;99.90
7518;DHT22;3800;48.922;9.444;2023-08-12T13:03:00;20.70;99.90
7518;DHT22;3800;48.922;9.444;2023-08-12T13:05:29;20.70;99.90
7518;DHT22;3800;48.922;9.444;2023-08-12T13:07:57;20.60;99.90
7518;DHT22;3800;48.922;9.444;2023-08-12T13:10:26;20.70;99.90
7518;DHT22;3800;48.922;9.444;2023-08-12T13:12:54;20.80;99.90
7518;DHT22;3800;48.922;9.444;2023-08-12T13:15:22;20.70;99.90
7518;DHT22;3800;48.922;9.444;2023-08-12T13:17:49;20.80;99.90
7518;DHT22;3800;48.922;9.444;2023-08-12T13:20:17;20.90;99.90
7518;DHT22;3800;48.922;9.444;2023-08-12T13:22:45;21.00;99.90
7518;DHT22;3800;48.922;9.444;2023-08-12T13:25:13;21.00;99.90
7518;DHT22;3800;48.922;9.444;2023-08-12T13:27:40;21.00;99.90
7518;DHT22;3800;48.922;9.444;2023-08-12T13:30:08;21.00;99.90
7518;DHT22;3800;48.922;9.444;2023-08-12T13:32:36;21.00;99.90
7518;DHT22;3800;48.922;9.444;2023-08-12T13:35:03;21.00;99.90
7518;DHT22;3800;48.922;9.444;2023-08-12T13:37:32;21.00;99.90
7518;DHT22;3800;48.922;9.444;2023-08-12T13:40:00;21.00;99.90
7518;DHT22;3800;48.922;9.444;2023-08-12T13:42:27;21.00;99.90
7518;DHT22;3800;48.922;9.444;2023-08-12T13:44:55;21.10;99.90
7518;DHT22;3800;48.922;9.444;2023-08-12T13:47:23;21.20;99.90
7518;DHT22;3800;48.922;9.444;2023-08-12T13:49:51;21.10;99.90
7518;DHT22;3800;48.922;9.444;2023-08-12T13:52:19;21.20;99.90
7518;DHT22;3800;48.922;9.444;2023-08-12T13:54:47;21.30;99.90
7518;DHT22;3800;48.922;9.444;2023-08-12T13:57:15;21.30;99.90
7518;DHT22;3800;48.922;9.444;2023-08-12T13:59:42;21.30;99.90
7518;DHT22;3800;48.922;9.444;2023-08-12T14:02:11;21.30;99.90
7518;DHT22;3800;48.922;9.444;2023-08-12T14:04:38;21.30;99.90
7518;DHT22;3800;48.922;9.444;2023-08-12T14:07:06;21.40;99.90
7518;DHT22;3800;48.922;9.444;2023-08-12T14:09:34;21.50;99.90
7518;DHT22;3800;48.922;9.444;2023-08-12T14:12:02;21.70;99.90
7518;DHT22;3800;48.922;9.444;2023-08-12T14:14:30;21.70;99.90
7518;DHT22;3800;48.922;9.444;2023-08-12T14:16:57;21.90;99.90
7518;DHT22;3800;48.922;9.444;2023-08-12T14:19:25;22.10;99.90
7518;DHT22;3800;48.922;9.444;2023-08-12T14:21:52;22.30;99.90
7518;DHT22;3800;48.922;9.444;2023-08-12T14:24:20;22.50;99.90
7518;DHT22;3800;48.922;9.444;2023-08-12T14:26:48;22.60;99.90
7518;DHT22;3800;48.922;9.444;2023-08-12T14:29:16;22.80;99.90
7518;DHT22;3800;48.922;9.444;2023-08-12T14:31:44;23.10;99.90
7518;DHT22;3800;48.922;9.444;2023-08-12T14:34:12;23.10;99.90
7518;DHT22;3800;48.922;9.444;2023-08-12T14:36:40;23.30;99.90
7518;DHT22;3800;48.922;9.444;2023-08-12T14:39:08;23.30;99.90
7518;DHT22;3800;48.922;9.444;2023-08-12T14:41:35;23.30;99.90
7518;DHT22;3800;48.922;9.444;2023-08-12T14:44:03;23.40;99.90
7518;DHT22;3800;48.922;9.444;2023-08-12T14:46:32;23.50;99.90
7518;DHT22;3800;48.922;9.444;2023-08-12T14:49:00;23.60;99.90
7518;DHT22;3800;48.922;9.444;2023-08-12T14:51:28;23.80;99.90
7518;DHT22;3800;48.922;9.444;2023-08-12T14:53:56;23.80;99.90
7518;DHT22;3800;48.922;9.444;2023-08-12T14:56:23;23.80;99.90
7518;DHT22;3800;48.922;9.444;2023-08-12T14:58:51;23.90;99.90
7518;DHT22;3800;48.922;9.444;2023-08-12T15:01:19;24.00;99.90
7518;DHT22;3800;48.922;9.444;2023-08-12T15:03:46;24.00;99.90
7518;DHT22;3800;48.922;9.444;2023-08-12T15:06:14;23.90;99.90
7518;DHT22;3800;48.922;9.444;2023-08-12T15:08:42;24.00;99.90
7518;DHT22;3800;48.922;9.444;2023-08-12T15:11:10;24.10;99.90
7518;DHT22;3800;48.922;9.444;2023-08-12T15:13:37;24.20;99.90
7518;DHT22;3800;48.922;9.444;2023-08-12T15:16:05;24.30;99.90
7518;DHT22;3800;48.922;9.444;2023-08-12T15:18:33;24.50;99.90
7518;DHT22;3800;48.922;9.444;2023-08-12T15:21:00;24.60;99.90
7518;DHT22;3800;48.922;9.444;2023-08-12T15:23:28;24.70;99.90
7518;DHT22;3800;48.922;9.444;2023-08-12T15:25:56;24.80;99.90
7518;DHT22;3800;48.922;9.444;2023-08-12T15:28:24;24.70;99.90
7518;DHT22;3800;48.922;9.444;2023-08-12T15:30:52;24.70;99.90
7518;DHT22;3800;48.922;9.444;2023-08-12T15:33:20;24.60;99.90
7518;DHT22;3800;48.922;9.444;2023-08-12T15:35:47;24.50;99.90
7518;DHT22;3800;48.922;9.444;2023-08-12T15:38:15;24.30;99.90
7518;DHT22;3800;48.922;9.444;2023-08-12T15:40:44;24.00;99.90
7518;DHT22;3800;48.922;9.444;2023-08-12T15:43:11;24.00;99.90
7518;DHT22;3800;48.922;9.444;2023-08-12T15:45:40;23.90;99.90
7518;DHT22;3800;48.922;9.444;2023-08-12T15:48:08;23.80;99.90
7518;DHT22;3800;48.922;9.444;2023-08-12T15:50:35;23.70;99.90
7518;DHT22;3800;48.922;9.444;2023-08-12T15:53:03;23.70;99.90
7518;DHT22;3800;48.922;9.444;2023-08-12T15:55:30;23.70;99.90
7518;DHT22;3800;48.922;9.444;2023-08-12T15:57:59;23.60;99.90
7518;DHT22;3800;48.922;9.444;2023-08-12T16:00:26;23.60;99.90
7518;DHT22;3800;48.922;9.444;2023-08-12T16:02:55;23.50;99.90
7518;DHT22;3800;48.922;9.444;2023-08-12T16:05:23;23.50;99.90
7518;DHT22;3800;48.922;9.444;2023-08-12T16:07:51;23.40;99.90
7518;DHT22;3800;48.922;9.444;2023-08-12T16:10:18;23.40;99.90
7518;DHT22;3800;48.922;9.444;2023-08-12T16:12:47;23.40;99.90
7518;DHT22;3800;48.922;9.444;2023-08-12T16:15:14;23.30;99.90
7518;DHT22;3800;48.922;9.444;2023-08-12T16:17:42;23.30;99.90